createdAt,value
2023-01-30T00:03:24.720Z,15.73
2023-01-30T00:08:27.165Z,14.93
2023-01-30T00:13:28.538Z,14.25
2023-01-30T00:18:30.070Z,14.38
2023-01-30T00:23:33.720Z,15.73
2023-01-30T00:28:35.406Z,14.98
2023-01-30T00:33:38.903Z,15.05
2023-01-30T00:38:40.727Z,15.23
2023-01-30T00:44:01.052Z,14.55
2023-01-30T00:49:02.644Z,14.85
2023-01-30T00:54:04.481Z,14.73
2023-01-30T00:59:05.784Z,13.80
2023-01-30T01:04:08.848Z,15.02
2023-01-30T01:09:10.746Z,16.08
2023-01-30T01:14:12.070Z,15.60
2023-01-30T01:19:13.712Z,14.85
2023-01-30T01:24:16.073Z,13.57
2023-01-30T01:29:17.662Z,13.43
2023-01-30T01:34:19.225Z,16.48
2023-01-30T01:39:20.801Z,14.98
2023-01-30T01:44:25.080Z,16.08
2023-01-30T01:49:30.674Z,14.40
2023-01-30T01:54:49.425Z,14.98
2023-01-30T02:00:05.025Z,15.15
2023-01-30T02:05:07.083Z,14.48
2023-01-30T02:10:13.767Z,13.80
2023-01-30T02:15:17.059Z,14.48
2023-01-30T02:20:37.375Z,13.68
2023-01-30T02:26:17.658Z,12.95
2023-01-30T02:31:29.708Z,14.57
2023-01-30T02:36:45.568Z,13.75
2023-01-30T02:42:04.976Z,13.68
2023-01-30T02:47:38.647Z,13.88
2023-01-30T02:52:40.870Z,14.18
2023-01-30T02:57:42.463Z,14.02
2023-01-30T03:03:07.356Z,13.48
2023-01-30T03:08:08.854Z,12.68
2023-01-30T03:13:19.608Z,14.00
2023-01-30T03:18:22.044Z,13.63
2023-01-30T03:23:23.370Z,13.43
2023-01-30T03:28:25.806Z,13.68
2023-01-30T03:33:27.144Z,13.90
2023-01-30T03:38:28.552Z,13.48
2023-01-30T03:43:30.275Z,13.82
2023-01-30T03:48:31.609Z,14.38
2023-01-30T03:53:32.938Z,14.10
2023-01-30T03:58:34.317Z,13.43
2023-01-30T04:03:35.671Z,14.07
2023-01-30T04:08:37.056Z,13.85
2023-01-30T04:13:38.500Z,14.57
2023-01-30T04:18:39.882Z,13.15
2023-01-30T04:23:41.924Z,14.20
2023-01-30T04:28:44.592Z,14.27
2023-01-30T04:33:46.145Z,14.68
2023-01-30T04:38:47.704Z,16.25
2023-01-30T04:43:49.174Z,16.40
2023-01-30T04:48:50.561Z,15.88
2023-01-30T04:53:51.950Z,14.35
2023-01-30T04:58:53.503Z,15.18
2023-01-30T05:03:55.226Z,15.52
2023-01-30T05:08:57.457Z,14.90
2023-01-30T05:13:59.166Z,15.82
2023-01-30T05:19:00.609Z,15.93
2023-01-30T05:24:02.102Z,15.73
2023-01-30T05:29:03.559Z,15.15
2023-01-30T05:34:04.947Z,16.58
2023-01-30T05:39:06.392Z,16.13
2023-01-30T05:44:07.806Z,15.85
2023-01-30T05:49:09.113Z,16.25
2023-01-30T05:54:10.428Z,15.95
2023-01-30T05:59:12.563Z,15.52
2023-01-30T06:04:14.101Z,15.75
2023-01-30T06:09:15.489Z,15.35
2023-01-30T06:14:16.879Z,16.20
2023-01-30T06:19:18.245Z,16.05
2023-01-30T06:24:19.599Z,14.63
2023-01-30T06:29:21.016Z,14.50
2023-01-30T06:34:22.420Z,14.27
2023-01-30T06:39:23.850Z,14.00
2023-01-30T06:44:25.186Z,13.57
2023-01-30T06:49:26.554Z,13.02
2023-01-30T06:54:27.932Z,13.05
2023-01-30T06:59:30.324Z,12.50
2023-01-30T07:04:31.805Z,12.80
2023-01-30T07:09:33.238Z,13.18
2023-01-30T07:14:35.075Z,12.90
2023-01-30T07:19:36.393Z,13.18
2023-01-30T07:24:38.507Z,12.07
2023-01-30T07:29:40.075Z,12.57
2023-01-30T07:34:42.253Z,12.25
2023-01-30T07:39:43.942Z,12.75
2023-01-30T07:44:45.272Z,12.50
2023-01-30T07:49:46.601Z,11.77
2023-01-30T07:54:47.953Z,13.13
2023-01-30T07:59:49.421Z,13.02
2023-01-30T08:04:50.841Z,11.25
2023-01-30T08:09:52.466Z,12.73
2023-01-30T08:14:53.886Z,12.50
2023-01-30T08:19:55.367Z,10.55
2023-01-30T08:24:56.653Z,11.38
2023-01-30T08:29:57.967Z,12.18
2023-01-30T08:34:59.437Z,11.00
2023-01-30T08:40:00.783Z,11.82
2023-01-30T08:45:02.564Z,11.18
2023-01-30T08:50:04.739Z,11.00
2023-01-30T08:55:06.412Z,9.95
2023-01-30T09:00:09.184Z,11.18
2023-01-30T09:05:11.210Z,9.90
2023-01-30T09:10:12.571Z,8.73
2023-01-30T09:15:14.039Z,8.35
2023-01-30T09:20:15.493Z,8.98
2023-01-30T09:25:17.483Z,8.02
2023-01-30T09:30:19.599Z,7.72
2023-01-30T09:35:21.102Z,6.28
2023-01-30T09:40:27.161Z,5.38
2023-01-30T09:45:59.876Z,5.95
2023-01-30T09:51:17.878Z,5.40
2023-01-30T09:56:19.967Z,4.40
2023-01-30T10:01:44.298Z,4.95
2023-01-30T10:07:04.878Z,4.82
2023-01-30T10:12:32.283Z,4.15
2023-01-30T10:17:43.082Z,3.28
2023-01-30T10:23:02.116Z,5.22
2023-01-30T10:28:16.395Z,3.13
2023-01-30T10:33:26.355Z,1.90
2023-01-30T10:38:43.967Z,2.50
2023-01-30T10:43:58.782Z,2.75
2023-01-30T10:49:19.693Z,2.35
2023-01-30T10:55:02.991Z,2.10
2023-01-30T11:01:03.463Z,2.25
2023-01-30T11:06:13.364Z,1.90
2023-01-30T11:11:31.127Z,2.10
2023-01-30T11:16:43.365Z,2.63
2023-01-30T11:21:53.587Z,2.10
2023-01-30T11:26:56.621Z,2.17
2023-01-30T11:32:11.385Z,2.15
2023-01-30T11:37:26.663Z,1.85
2023-01-30T11:42:32.184Z,1.77
2023-01-30T11:47:33.624Z,2.00
2023-01-30T11:52:38.126Z,1.48
2023-01-30T11:57:51.179Z,1.60
2023-01-30T12:02:54.325Z,1.45
2023-01-30T12:08:31.212Z,1.48
2023-01-30T12:13:45.418Z,1.38
2023-01-30T12:18:59.322Z,2.03
2023-01-30T12:24:11.649Z,1.75
2023-01-30T12:29:29.821Z,1.42
2023-01-30T12:34:31.419Z,1.58
2023-01-30T12:39:47.812Z,1.90
2023-01-30T12:45:19.691Z,1.98
2023-01-30T12:50:38.259Z,2.10
2023-01-30T12:55:58.361Z,1.40
2023-01-30T13:01:29.485Z,0.93
2023-01-30T13:07:26.251Z,1.58
2023-01-30T13:12:42.907Z,1.50
2023-01-30T13:17:56.003Z,1.25
2023-01-30T13:23:27.113Z,1.17
2023-01-30T13:28:35.283Z,3.58
2023-01-30T13:33:40.560Z,1.80
2023-01-30T13:39:13.496Z,1.83
2023-01-30T13:44:23.049Z,1.90
2023-01-30T13:49:36.614Z,1.75
2023-01-30T13:54:50.628Z,1.75
2023-01-30T14:00:16.915Z,1.25
2023-01-30T14:06:00.972Z,1.70
2023-01-30T14:11:03.129Z,1.50
2023-01-30T14:16:06.830Z,1.83
2023-01-30T14:21:25.316Z,1.88
2023-01-30T14:26:55.974Z,2.20
2023-01-30T14:31:57.612Z,2.22
2023-01-30T14:36:59.114Z,1.45
2023-01-30T14:42:33.418Z,1.10
2023-01-30T14:47:44.812Z,1.77
2023-01-30T14:52:54.517Z,3.87
2023-01-30T14:58:02.622Z,1.50
2023-01-30T15:03:24.785Z,1.75
2023-01-30T15:08:26.980Z,1.73
2023-01-30T15:13:41.444Z,1.90
2023-01-30T15:19:28.643Z,1.92
2023-01-30T15:25:07.631Z,2.72
2023-01-30T15:30:29.605Z,2.22
2023-01-30T15:35:31.083Z,2.67
2023-01-30T15:40:32.830Z,2.80
2023-01-30T15:45:34.249Z,2.80
2023-01-30T15:50:37.250Z,2.75
2023-01-30T15:55:38.696Z,2.45
2023-01-30T16:00:49.172Z,2.40
2023-01-30T16:05:55.184Z,2.88
2023-01-30T16:10:56.787Z,2.63
2023-01-30T16:16:01.130Z,2.72
2023-01-30T16:21:06.464Z,2.50
2023-01-30T16:26:14.306Z,2.00
2023-01-30T16:31:18.259Z,2.75
2023-01-30T16:36:19.614Z,3.10
2023-01-30T16:41:44.875Z,3.30
2023-01-30T16:51:49.225Z,4.50
2023-01-30T16:56:55.466Z,3.50
2023-01-30T17:01:59.077Z,2.72
2023-01-30T17:07:04.359Z,3.08
2023-01-30T17:12:42.695Z,2.80
2023-01-30T17:17:44.455Z,2.95
2023-01-30T17:22:48.325Z,2.28
2023-01-30T17:27:49.900Z,2.58
2023-01-30T17:32:51.293Z,2.40
2023-01-30T17:38:03.504Z,3.28
2023-01-30T17:43:06.034Z,2.58
2023-01-30T17:48:08.006Z,2.80
2023-01-30T17:53:09.462Z,2.97
2023-01-30T17:58:19.474Z,2.65
2023-01-30T18:03:21.038Z,2.97
2023-01-30T18:08:22.434Z,2.90
2023-01-30T18:13:23.788Z,3.22
2023-01-30T18:18:25.606Z,3.28
2023-01-30T18:23:27.281Z,3.20
2023-01-30T18:28:28.767Z,3.03
2023-01-30T18:33:30.183Z,3.00
2023-01-30T18:38:32.213Z,3.28
2023-01-30T18:43:33.698Z,2.90
2023-01-30T18:48:35.822Z,2.85
2023-01-30T18:53:37.842Z,3.20
2023-01-30T18:58:39.565Z,4.15
2023-01-30T19:03:41.529Z,3.67
2023-01-30T19:08:43.048Z,3.72
2023-01-30T19:13:44.403Z,3.10
2023-01-30T19:18:46.060Z,4.13
2023-01-30T19:23:49.054Z,3.22
2023-01-30T19:28:51.438Z,3.30
2023-01-30T19:33:56.364Z,3.70
2023-01-30T19:44:03.696Z,2.50
2023-01-30T19:49:05.788Z,3.25
2023-01-30T19:54:10.564Z,3.55
2023-01-30T19:59:12.992Z,3.35
2023-01-30T20:04:14.365Z,3.17
2023-01-30T20:09:16.168Z,3.20
2023-01-30T20:14:17.591Z,5.22
2023-01-30T20:19:19.054Z,3.17
2023-01-30T20:24:20.417Z,3.40
2023-01-30T20:29:21.931Z,3.60
2023-01-30T20:34:24.056Z,3.53
2023-01-30T20:39:25.749Z,3.25
2023-01-30T20:44:27.167Z,3.80
2023-01-30T20:49:28.502Z,3.17
2023-01-30T20:54:29.853Z,3.13
2023-01-30T20:59:31.397Z,3.15
2023-01-30T21:04:33.216Z,3.63
2023-01-30T21:09:34.785Z,3.58
2023-01-30T21:14:36.184Z,3.90
2023-01-30T21:19:38.371Z,4.15
2023-01-30T21:24:44.276Z,3.28
2023-01-30T21:29:45.708Z,3.05
2023-01-30T21:34:47.267Z,4.50
2023-01-30T21:40:07.436Z,3.10
2023-01-30T21:45:09.125Z,3.03
2023-01-30T21:50:10.917Z,3.35
2023-01-30T21:55:12.307Z,4.97
2023-01-30T22:00:14.371Z,2.88
2023-01-30T22:05:15.770Z,2.75
2023-01-30T22:10:17.328Z,3.35
2023-01-30T22:15:21.640Z,2.90
2023-01-30T22:20:23.253Z,2.97
2023-01-30T22:25:24.656Z,3.47
2023-01-30T22:30:26.205Z,2.88
2023-01-30T22:35:27.495Z,3.45
2023-01-30T22:40:28.865Z,3.15
2023-01-30T22:45:30.310Z,2.85
2023-01-30T22:50:31.685Z,3.75
2023-01-30T22:55:35.809Z,3.17
2023-01-30T23:00:37.106Z,4.00
2023-01-30T23:05:39.191Z,3.08
2023-01-30T23:10:40.558Z,2.97
2023-01-30T23:15:43.433Z,2.47
2023-01-30T23:20:45.385Z,2.83
2023-01-30T23:25:47.009Z,2.47
2023-01-30T23:30:48.472Z,2.97
2023-01-30T23:35:49.780Z,2.75
2023-01-30T23:40:51.217Z,3.10
2023-01-30T23:45:55.917Z,3.15
2023-01-30T23:50:57.352Z,3.17
2023-01-30T23:55:58.904Z,3.85
